sensor_id;sensor_type;location;lat;lon;timestamp;P1;durP1;ratioP1;P2;durP2;ratioP2
71207;SDS011;58938;49.868;8.646;2022-09-09T00:00:20;4.40;;;1.95;;
71207;SDS011;58938;49.868;8.646;2022-09-09T00:05:34;4.68;;;1.65;;
71207;SDS011;58938;49.868;8.646;2022-09-09T00:08:20;4.43;;;1.83;;
71207;SDS011;58938;49.868;8.646;2022-09-09T00:10:58;5.60;;;2.20;;
71207;SDS011;58938;49.868;8.646;2022-09-09T00:13:31;3.95;;;2.05;;
71207;SDS011;58938;49.868;8.646;2022-09-09T00:19:02;7.25;;;1.98;;
71207;SDS011;58938;49.868;8.646;2022-09-09T00:21:36;8.05;;;2.10;;
71207;SDS011;58938;49.868;8.646;2022-09-09T00:24:11;4.33;;;1.73;;
71207;SDS011;58938;49.868;8.646;2022-09-09T00:26:52;4.32;;;1.63;;
71207;SDS011;58938;49.868;8.646;2022-09-09T00:29:35;4.47;;;1.70;;
71207;SDS011;58938;49.868;8.646;2022-09-09T00:32:11;5.03;;;1.80;;
71207;SDS011;58938;49.868;8.646;2022-09-09T00:34:54;5.05;;;1.88;;
71207;SDS011;58938;49.868;8.646;2022-09-09T00:37:37;6.87;;;2.73;;
71207;SDS011;58938;49.868;8.646;2022-09-09T00:40:06;6.40;;;1.65;;
71207;SDS011;58938;49.868;8.646;2022-09-09T00:42:58;3.95;;;1.70;;
71207;SDS011;58938;49.868;8.646;2022-09-09T00:51:15;4.07;;;2.10;;
71207;SDS011;58938;49.868;8.646;2022-09-09T00:54:06;5.60;;;1.80;;
71207;SDS011;58938;49.868;8.646;2022-09-09T00:57:07;4.60;;;1.83;;
71207;SDS011;58938;49.868;8.646;2022-09-09T00:59:50;5.95;;;1.77;;
71207;SDS011;58938;49.868;8.646;2022-09-09T01:02:29;9.93;;;2.40;;
71207;SDS011;58938;49.868;8.646;2022-09-09T01:05:05;4.20;;;1.80;;
71207;SDS011;58938;49.868;8.646;2022-09-09T01:07:37;4.18;;;1.60;;
71207;SDS011;58938;49.868;8.646;2022-09-09T01:10:07;5.63;;;2.15;;
71207;SDS011;58938;49.868;8.646;2022-09-09T01:13:01;8.80;;;1.73;;
71207;SDS011;58938;49.868;8.646;2022-09-09T01:15:31;6.80;;;2.20;;
71207;SDS011;58938;49.868;8.646;2022-09-09T01:18:10;5.10;;;2.07;;
71207;SDS011;58938;49.868;8.646;2022-09-09T01:26:12;5.53;;;1.90;;
71207;SDS011;58938;49.868;8.646;2022-09-09T01:28:39;8.25;;;2.13;;
71207;SDS011;58938;49.868;8.646;2022-09-09T01:31:07;6.50;;;1.73;;
71207;SDS011;58938;49.868;8.646;2022-09-09T01:33:36;6.35;;;2.35;;
71207;SDS011;58938;49.868;8.646;2022-09-09T01:36:04;5.47;;;2.00;;
71207;SDS011;58938;49.868;8.646;2022-09-09T01:38:37;7.00;;;2.00;;
71207;SDS011;58938;49.868;8.646;2022-09-09T01:41:03;6.43;;;2.20;;
71207;SDS011;58938;49.868;8.646;2022-09-09T01:43:29;6.38;;;2.17;;
71207;SDS011;58938;49.868;8.646;2022-09-09T01:45:56;4.70;;;2.05;;
71207;SDS011;58938;49.868;8.646;2022-09-09T01:48:24;7.80;;;2.58;;
71207;SDS011;58938;49.868;8.646;2022-09-09T01:50:50;8.03;;;2.47;;
71207;SDS011;58938;49.868;8.646;2022-09-09T01:53:17;5.20;;;2.00;;
71207;SDS011;58938;49.868;8.646;2022-09-09T01:56:30;5.03;;;1.90;;
71207;SDS011;58938;49.868;8.646;2022-09-09T02:07:40;5.03;;;2.10;;
71207;SDS011;58938;49.868;8.646;2022-09-09T02:12:40;5.85;;;2.05;;
71207;SDS011;58938;49.868;8.646;2022-09-09T02:18:04;5.53;;;2.10;;
71207;SDS011;58938;49.868;8.646;2022-09-09T02:20:33;7.15;;;2.42;;
71207;SDS011;58938;49.868;8.646;2022-09-09T02:23:02;6.68;;;2.38;;
71207;SDS011;58938;49.868;8.646;2022-09-09T02:25:31;7.07;;;2.00;;
71207;SDS011;58938;49.868;8.646;2022-09-09T02:27:59;6.32;;;2.30;;
71207;SDS011;58938;49.868;8.646;2022-09-09T02:30:26;4.83;;;2.07;;
71207;SDS011;58938;49.868;8.646;2022-09-09T02:32:54;4.90;;;1.90;;
71207;SDS011;58938;49.868;8.646;2022-09-09T02:35:23;5.63;;;2.00;;
71207;SDS011;58938;49.868;8.646;2022-09-09T02:37:52;6.45;;;2.25;;
71207;SDS011;58938;49.868;8.646;2022-09-09T02:40:21;7.03;;;2.22;;
71207;SDS011;58938;49.868;8.646;2022-09-09T02:42:47;7.40;;;1.97;;
71207;SDS011;58938;49.868;8.646;2022-09-09T02:45:16;5.63;;;2.20;;
71207;SDS011;58938;49.868;8.646;2022-09-09T02:50:33;5.60;;;2.13;;
71207;SDS011;58938;49.868;8.646;2022-09-09T02:53:18;5.88;;;2.28;;
71207;SDS011;58938;49.868;8.646;2022-09-09T02:55:56;5.18;;;2.15;;
71207;SDS011;58938;49.868;8.646;2022-09-09T02:58:30;6.05;;;2.13;;
71207;SDS011;58938;49.868;8.646;2022-09-09T03:00:56;6.32;;;2.10;;
71207;SDS011;58938;49.868;8.646;2022-09-09T03:03:22;8.07;;;1.93;;
71207;SDS011;58938;49.868;8.646;2022-09-09T03:05:48;5.57;;;2.03;;
71207;SDS011;58938;49.868;8.646;2022-09-09T03:08:14;7.80;;;1.83;;
71207;SDS011;58938;49.868;8.646;2022-09-09T03:10:40;6.63;;;2.10;;
71207;SDS011;58938;49.868;8.646;2022-09-09T03:13:06;7.35;;;2.22;;
71207;SDS011;58938;49.868;8.646;2022-09-09T03:15:32;6.63;;;1.83;;
71207;SDS011;58938;49.868;8.646;2022-09-09T03:17:58;5.47;;;2.33;;
71207;SDS011;58938;49.868;8.646;2022-09-09T03:20:25;6.03;;;2.00;;
71207;SDS011;58938;49.868;8.646;2022-09-09T03:22:52;6.93;;;1.83;;
71207;SDS011;58938;49.868;8.646;2022-09-09T03:25:19;7.33;;;1.83;;
71207;SDS011;58938;49.868;8.646;2022-09-09T03:27:44;6.15;;;2.00;;
71207;SDS011;58938;49.868;8.646;2022-09-09T03:30:10;7.57;;;2.00;;
71207;SDS011;58938;49.868;8.646;2022-09-09T03:32:36;5.68;;;1.75;;
71207;SDS011;58938;49.868;8.646;2022-09-09T03:35:02;7.13;;;1.90;;
71207;SDS011;58938;49.868;8.646;2022-09-09T03:37:28;8.53;;;2.00;;
71207;SDS011;58938;49.868;8.646;2022-09-09T03:39:53;8.77;;;1.88;;
71207;SDS011;58938;49.868;8.646;2022-09-09T03:42:19;5.17;;;1.90;;
71207;SDS011;58938;49.868;8.646;2022-09-09T03:44:46;10.07;;;2.50;;
71207;SDS011;58938;49.868;8.646;2022-09-09T03:47:15;6.72;;;2.30;;
71207;SDS011;58938;49.868;8.646;2022-09-09T03:49:44;5.80;;;1.80;;
71207;SDS011;58938;49.868;8.646;2022-09-09T03:52:10;6.50;;;1.92;;
71207;SDS011;58938;49.868;8.646;2022-09-09T03:54:36;5.57;;;2.00;;
71207;SDS011;58938;49.868;8.646;2022-09-09T03:57:02;6.07;;;2.30;;
71207;SDS011;58938;49.868;8.646;2022-09-09T03:59:28;4.23;;;2.10;;
71207;SDS011;58938;49.868;8.646;2022-09-09T04:01:53;6.25;;;2.13;;
71207;SDS011;58938;49.868;8.646;2022-09-09T04:04:19;7.13;;;2.10;;
71207;SDS011;58938;49.868;8.646;2022-09-09T04:06:45;6.30;;;2.13;;
71207;SDS011;58938;49.868;8.646;2022-09-09T04:09:13;5.82;;;2.10;;
71207;SDS011;58938;49.868;8.646;2022-09-09T04:11:39;7.10;;;1.90;;
71207;SDS011;58938;49.868;8.646;2022-09-09T04:14:04;7.00;;;2.00;;
71207;SDS011;58938;49.868;8.646;2022-09-09T04:16:31;9.55;;;2.20;;
71207;SDS011;58938;49.868;8.646;2022-09-09T04:18:57;7.53;;;2.00;;
71207;SDS011;58938;49.868;8.646;2022-09-09T04:21:24;6.47;;;2.00;;
71207;SDS011;58938;49.868;8.646;2022-09-09T04:23:50;6.13;;;2.40;;
71207;SDS011;58938;49.868;8.646;2022-09-09T04:26:16;9.93;;;2.67;;
71207;SDS011;58938;49.868;8.646;2022-09-09T04:28:42;10.17;;;2.80;;
71207;SDS011;58938;49.868;8.646;2022-09-09T04:31:14;6.72;;;2.33;;
71207;SDS011;58938;49.868;8.646;2022-09-09T04:33:42;7.65;;;2.35;;
71207;SDS011;58938;49.868;8.646;2022-09-09T04:36:08;7.03;;;2.20;;
71207;SDS011;58938;49.868;8.646;2022-09-09T04:38:34;8.00;;;2.70;;
71207;SDS011;58938;49.868;8.646;2022-09-09T04:41:00;5.67;;;1.90;;
71207;SDS011;58938;49.868;8.646;2022-09-09T04:43:26;5.18;;;2.15;;
71207;SDS011;58938;49.868;8.646;2022-09-09T04:45:52;6.70;;;2.05;;
71207;SDS011;58938;49.868;8.646;2022-09-09T04:48:17;7.03;;;2.13;;
71207;SDS011;58938;49.868;8.646;2022-09-09T04:50:47;6.75;;;2.15;;
71207;SDS011;58938;49.868;8.646;2022-09-09T04:53:22;5.63;;;1.65;;
71207;SDS011;58938;49.868;8.646;2022-09-09T04:55:48;5.75;;;2.13;;
71207;SDS011;58938;49.868;8.646;2022-09-09T04:58:14;4.30;;;2.03;;
71207;SDS011;58938;49.868;8.646;2022-09-09T05:00:40;9.00;;;2.33;;
71207;SDS011;58938;49.868;8.646;2022-09-09T05:03:05;7.53;;;2.03;;
71207;SDS011;58938;49.868;8.646;2022-09-09T05:05:33;4.45;;;1.98;;
71207;SDS011;58938;49.868;8.646;2022-09-09T05:08:03;9.05;;;2.67;;
71207;SDS011;58938;49.868;8.646;2022-09-09T05:10:30;4.80;;;2.13;;
71207;SDS011;58938;49.868;8.646;2022-09-09T05:12:56;6.07;;;1.90;;
71207;SDS011;58938;49.868;8.646;2022-09-09T05:15:22;5.45;;;1.77;;
71207;SDS011;58938;49.868;8.646;2022-09-09T05:17:47;5.67;;;2.10;;
71207;SDS011;58938;49.868;8.646;2022-09-09T05:20:13;6.93;;;1.73;;
71207;SDS011;58938;49.868;8.646;2022-09-09T05:22:38;6.10;;;1.63;;
71207;SDS011;58938;49.868;8.646;2022-09-09T05:25:05;7.47;;;1.83;;
71207;SDS011;58938;49.868;8.646;2022-09-09T05:27:33;7.05;;;1.70;;
71207;SDS011;58938;49.868;8.646;2022-09-09T05:29:59;8.03;;;1.80;;
71207;SDS011;58938;49.868;8.646;2022-09-09T05:32:24;7.53;;;1.50;;
71207;SDS011;58938;49.868;8.646;2022-09-09T05:34:50;6.33;;;1.80;;
71207;SDS011;58938;49.868;8.646;2022-09-09T05:37:17;5.28;;;1.63;;
71207;SDS011;58938;49.868;8.646;2022-09-09T05:39:43;7.32;;;2.22;;
71207;SDS011;58938;49.868;8.646;2022-09-09T05:42:08;7.07;;;1.83;;
71207;SDS011;58938;49.868;8.646;2022-09-09T05:44:34;4.53;;;1.58;;
71207;SDS011;58938;49.868;8.646;2022-09-09T05:46:59;6.10;;;2.17;;
71207;SDS011;58938;49.868;8.646;2022-09-09T05:49:25;5.63;;;1.83;;
71207;SDS011;58938;49.868;8.646;2022-09-09T05:51:51;6.43;;;2.13;;
71207;SDS011;58938;49.868;8.646;2022-09-09T05:54:17;6.00;;;1.83;;
71207;SDS011;58938;49.868;8.646;2022-09-09T05:56:42;5.88;;;1.85;;
71207;SDS011;58938;49.868;8.646;2022-09-09T05:59:08;6.38;;;2.05;;
71207;SDS011;58938;49.868;8.646;2022-09-09T06:01:34;5.70;;;2.10;;
71207;SDS011;58938;49.868;8.646;2022-09-09T06:04:05;5.75;;;2.10;;
71207;SDS011;58938;49.868;8.646;2022-09-09T06:06:32;5.93;;;2.05;;
71207;SDS011;58938;49.868;8.646;2022-09-09T06:09:02;5.03;;;2.47;;
71207;SDS011;58938;49.868;8.646;2022-09-09T06:11:31;7.75;;;2.58;;
71207;SDS011;58938;49.868;8.646;2022-09-09T06:14:01;6.10;;;2.08;;
71207;SDS011;58938;49.868;8.646;2022-09-09T06:16:27;7.97;;;1.90;;
71207;SDS011;58938;49.868;8.646;2022-09-09T06:18:54;7.20;;;1.80;;
71207;SDS011;58938;49.868;8.646;2022-09-09T06:21:22;5.07;;;1.30;;
71207;SDS011;58938;49.868;8.646;2022-09-09T06:23:55;20.13;;;2.55;;
71207;SDS011;58938;49.868;8.646;2022-09-09T06:28:51;5.70;;;1.50;;
71207;SDS011;58938;49.868;8.646;2022-09-09T06:31:19;6.65;;;2.45;;
71207;SDS011;58938;49.868;8.646;2022-09-09T06:33:49;4.80;;;1.70;;
71207;SDS011;58938;49.868;8.646;2022-09-09T06:36:17;5.55;;;1.38;;
71207;SDS011;58938;49.868;8.646;2022-09-09T06:38:47;4.70;;;2.00;;
71207;SDS011;58938;49.868;8.646;2022-09-09T06:41:14;6.60;;;1.90;;
71207;SDS011;58938;49.868;8.646;2022-09-09T06:43:41;5.53;;;2.00;;
71207;SDS011;58938;49.868;8.646;2022-09-09T06:46:17;4.97;;;2.05;;
71207;SDS011;58938;49.868;8.646;2022-09-09T06:48:44;7.50;;;1.90;;
71207;SDS011;58938;49.868;8.646;2022-09-09T06:51:14;6.30;;;1.60;;
71207;SDS011;58938;49.868;8.646;2022-09-09T06:53:49;6.85;;;1.63;;
71207;SDS011;58938;49.868;8.646;2022-09-09T06:58:41;7.37;;;2.00;;
71207;SDS011;58938;49.868;8.646;2022-09-09T07:01:09;6.50;;;2.20;;
71207;SDS011;58938;49.868;8.646;2022-09-09T07:03:37;5.43;;;2.13;;
71207;SDS011;58938;49.868;8.646;2022-09-09T07:06:03;5.75;;;1.85;;
71207;SDS011;58938;49.868;8.646;2022-09-09T07:08:30;5.75;;;2.20;;
71207;SDS011;58938;49.868;8.646;2022-09-09T07:11:01;6.17;;;2.53;;
71207;SDS011;58938;49.868;8.646;2022-09-09T07:13:31;5.85;;;1.92;;
71207;SDS011;58938;49.868;8.646;2022-09-09T07:16:06;7.05;;;2.05;;
71207;SDS011;58938;49.868;8.646;2022-09-09T07:18:33;8.33;;;1.83;;
71207;SDS011;58938;49.868;8.646;2022-09-09T07:20:59;6.80;;;2.20;;
71207;SDS011;58938;49.868;8.646;2022-09-09T07:23:26;6.60;;;1.95;;
71207;SDS011;58938;49.868;8.646;2022-09-09T07:25:51;5.03;;;2.17;;
71207;SDS011;58938;49.868;8.646;2022-09-09T07:28:18;4.93;;;1.85;;
71207;SDS011;58938;49.868;8.646;2022-09-09T07:30:56;7.57;;;2.00;;
71207;SDS011;58938;49.868;8.646;2022-09-09T07:33:23;7.57;;;2.20;;
71207;SDS011;58938;49.868;8.646;2022-09-09T07:35:50;7.65;;;2.40;;
71207;SDS011;58938;49.868;8.646;2022-09-09T07:38:16;6.77;;;1.67;;
71207;SDS011;58938;49.868;8.646;2022-09-09T07:40:42;6.28;;;2.40;;
71207;SDS011;58938;49.868;8.646;2022-09-09T07:43:08;6.43;;;2.17;;
71207;SDS011;58938;49.868;8.646;2022-09-09T07:45:34;5.45;;;1.83;;
71207;SDS011;58938;49.868;8.646;2022-09-09T07:48:00;6.57;;;1.67;;
71207;SDS011;58938;49.868;8.646;2022-09-09T07:50:26;7.88;;;2.00;;
71207;SDS011;58938;49.868;8.646;2022-09-09T07:52:52;6.75;;;2.03;;
71207;SDS011;58938;49.868;8.646;2022-09-09T07:55:18;6.73;;;2.07;;
71207;SDS011;58938;49.868;8.646;2022-09-09T07:57:44;7.53;;;1.80;;
71207;SDS011;58938;49.868;8.646;2022-09-09T08:00:10;8.88;;;2.35;;
71207;SDS011;58938;49.868;8.646;2022-09-09T08:02:36;6.80;;;2.00;;
71207;SDS011;58938;49.868;8.646;2022-09-09T08:05:02;7.75;;;2.10;;
71207;SDS011;58938;49.868;8.646;2022-09-09T08:07:27;6.30;;;2.23;;
71207;SDS011;58938;49.868;8.646;2022-09-09T08:09:54;7.00;;;2.03;;
71207;SDS011;58938;49.868;8.646;2022-09-09T08:12:20;6.18;;;2.22;;
71207;SDS011;58938;49.868;8.646;2022-09-09T08:14:46;6.73;;;2.47;;
71207;SDS011;58938;49.868;8.646;2022-09-09T08:17:12;7.97;;;2.35;;
71207;SDS011;58938;49.868;8.646;2022-09-09T08:19:37;7.07;;;2.37;;
71207;SDS011;58938;49.868;8.646;2022-09-09T08:22:03;8.60;;;2.22;;
71207;SDS011;58938;49.868;8.646;2022-09-09T08:24:28;6.40;;;1.93;;
71207;SDS011;58938;49.868;8.646;2022-09-09T08:26:57;8.47;;;2.60;;
71207;SDS011;58938;49.868;8.646;2022-09-09T08:29:22;6.57;;;2.08;;
71207;SDS011;58938;49.868;8.646;2022-09-09T08:31:49;10.98;;;2.03;;
71207;SDS011;58938;49.868;8.646;2022-09-09T08:34:19;6.20;;;2.03;;
71207;SDS011;58938;49.868;8.646;2022-09-09T08:36:45;6.57;;;1.95;;
71207;SDS011;58938;49.868;8.646;2022-09-09T08:39:13;9.27;;;2.67;;
71207;SDS011;58938;49.868;8.646;2022-09-09T08:52:55;7.85;;;2.38;;
71207;SDS011;58938;49.868;8.646;2022-09-09T08:55:45;6.50;;;1.85;;
71207;SDS011;58938;49.868;8.646;2022-09-09T08:58:17;10.32;;;2.63;;
71207;SDS011;58938;49.868;8.646;2022-09-09T09:03:25;8.35;;;2.60;;
71207;SDS011;58938;49.868;8.646;2022-09-09T09:08:44;8.73;;;2.42;;
71207;SDS011;58938;49.868;8.646;2022-09-09T09:11:19;11.20;;;2.83;;
71207;SDS011;58938;49.868;8.646;2022-09-09T09:13:46;8.93;;;2.73;;
71207;SDS011;58938;49.868;8.646;2022-09-09T09:16:23;9.63;;;3.25;;
71207;SDS011;58938;49.868;8.646;2022-09-09T09:18:57;8.52;;;2.60;;
71207;SDS011;58938;49.868;8.646;2022-09-09T09:23:59;7.82;;;2.60;;
71207;SDS011;58938;49.868;8.646;2022-09-09T09:26:35;10.80;;;2.80;;
71207;SDS011;58938;49.868;8.646;2022-09-09T09:29:07;8.90;;;2.53;;
71207;SDS011;58938;49.868;8.646;2022-09-09T09:31:42;10.70;;;2.78;;
71207;SDS011;58938;49.868;8.646;2022-09-09T09:34:17;8.52;;;2.55;;
71207;SDS011;58938;49.868;8.646;2022-09-09T09:36:58;6.33;;;2.40;;
71207;SDS011;58938;49.868;8.646;2022-09-09T09:39:32;7.90;;;2.10;;
71207;SDS011;58938;49.868;8.646;2022-09-09T09:42:09;7.88;;;2.33;;
71207;SDS011;58938;49.868;8.646;2022-09-09T09:44:39;8.27;;;1.90;;
71207;SDS011;58938;49.868;8.646;2022-09-09T09:47:06;5.47;;;1.95;;
71207;SDS011;58938;49.868;8.646;2022-09-09T09:49:38;9.17;;;2.30;;
71207;SDS011;58938;49.868;8.646;2022-09-09T09:52:05;7.45;;;2.65;;
71207;SDS011;58938;49.868;8.646;2022-09-09T09:54:39;7.25;;;2.45;;
71207;SDS011;58938;49.868;8.646;2022-09-09T09:57:14;6.70;;;1.80;;
71207;SDS011;58938;49.868;8.646;2022-09-09T09:59:41;8.55;;;2.00;;
71207;SDS011;58938;49.868;8.646;2022-09-09T10:04:59;7.50;;;2.22;;
71207;SDS011;58938;49.868;8.646;2022-09-09T10:07:38;9.23;;;2.17;;
71207;SDS011;58938;49.868;8.646;2022-09-09T10:10:04;8.33;;;1.93;;
71207;SDS011;58938;49.868;8.646;2022-09-09T10:12:43;11.75;;;2.22;;
71207;SDS011;58938;49.868;8.646;2022-09-09T10:27:10;5.47;;;1.63;;
71207;SDS011;58938;49.868;8.646;2022-09-09T10:32:37;5.65;;;1.95;;
71207;SDS011;58938;49.868;8.646;2022-09-09T10:35:35;5.97;;;1.83;;
71207;SDS011;58938;49.868;8.646;2022-09-09T10:40:43;7.78;;;2.30;;
71207;SDS011;58938;49.868;8.646;2022-09-09T10:49:07;13.13;;;3.25;;
71207;SDS011;58938;49.868;8.646;2022-09-09T10:57:17;11.73;;;3.13;;
71207;SDS011;58938;49.868;8.646;2022-09-09T10:59:47;15.88;;;3.60;;
71207;SDS011;58938;49.868;8.646;2022-09-09T11:02:29;14.93;;;3.58;;
71207;SDS011;58938;49.868;8.646;2022-09-09T11:05:03;10.30;;;2.27;;
71207;SDS011;58938;49.868;8.646;2022-09-09T11:07:36;8.55;;;2.30;;
71207;SDS011;58938;49.868;8.646;2022-09-09T11:10:44;7.65;;;2.78;;
71207;SDS011;58938;49.868;8.646;2022-09-09T11:13:21;12.98;;;2.92;;
71207;SDS011;58938;49.868;8.646;2022-09-09T11:16:02;7.55;;;2.60;;
71207;SDS011;58938;49.868;8.646;2022-09-09T11:18:38;9.20;;;2.57;;
71207;SDS011;58938;49.868;8.646;2022-09-09T11:21:07;10.68;;;3.22;;
71207;SDS011;58938;49.868;8.646;2022-09-09T11:23:57;8.20;;;2.30;;
71207;SDS011;58938;49.868;8.646;2022-09-09T11:26:32;12.20;;;2.75;;
71207;SDS011;58938;49.868;8.646;2022-09-09T11:29:41;9.18;;;3.42;;
71207;SDS011;58938;49.868;8.646;2022-09-09T11:38:18;7.15;;;3.00;;
71207;SDS011;58938;49.868;8.646;2022-09-09T11:40:56;8.90;;;2.80;;
71207;SDS011;58938;49.868;8.646;2022-09-09T11:43:27;8.32;;;2.70;;
71207;SDS011;58938;49.868;8.646;2022-09-09T11:45:57;6.63;;;2.67;;
71207;SDS011;58938;49.868;8.646;2022-09-09T11:48:34;8.57;;;2.70;;
71207;SDS011;58938;49.868;8.646;2022-09-09T11:53:33;6.38;;;2.40;;
71207;SDS011;58938;49.868;8.646;2022-09-09T11:56:07;10.82;;;2.83;;
71207;SDS011;58938;49.868;8.646;2022-09-09T11:58:36;7.47;;;2.50;;
71207;SDS011;58938;49.868;8.646;2022-09-09T12:01:41;9.48;;;2.50;;
71207;SDS011;58938;49.868;8.646;2022-09-09T12:06:44;10.88;;;2.63;;
71207;SDS011;58938;49.868;8.646;2022-09-09T12:17:19;7.65;;;2.25;;
71207;SDS011;58938;49.868;8.646;2022-09-09T12:19:47;7.35;;;2.38;;
71207;SDS011;58938;49.868;8.646;2022-09-09T12:27:50;8.02;;;2.17;;
71207;SDS011;58938;49.868;8.646;2022-09-09T12:30:35;7.95;;;2.00;;
71207;SDS011;58938;49.868;8.646;2022-09-09T12:33:12;6.47;;;1.90;;
71207;SDS011;58938;49.868;8.646;2022-09-09T12:35:42;9.05;;;2.20;;
71207;SDS011;58938;49.868;8.646;2022-09-09T12:38:12;11.17;;;2.33;;
71207;SDS011;58938;49.868;8.646;2022-09-09T12:40:52;6.30;;;2.00;;
71207;SDS011;58938;49.868;8.646;2022-09-09T12:43:20;8.65;;;1.70;;
71207;SDS011;58938;49.868;8.646;2022-09-09T12:45:48;4.78;;;1.67;;
71207;SDS011;58938;49.868;8.646;2022-09-09T12:48:21;5.05;;;1.65;;
71207;SDS011;58938;49.868;8.646;2022-09-09T12:50:52;7.43;;;1.80;;
71207;SDS011;58938;49.868;8.646;2022-09-09T12:55:52;5.18;;;1.48;;
71207;SDS011;58938;49.868;8.646;2022-09-09T12:58:24;6.32;;;1.30;;
71207;SDS011;58938;49.868;8.646;2022-09-09T13:00:53;5.63;;;1.45;;
71207;SDS011;58938;49.868;8.646;2022-09-09T13:03:23;4.37;;;1.30;;
71207;SDS011;58938;49.868;8.646;2022-09-09T13:05:50;5.65;;;1.38;;
71207;SDS011;58938;49.868;8.646;2022-09-09T13:08:18;4.13;;;1.63;;
71207;SDS011;58938;49.868;8.646;2022-09-09T13:10:49;6.68;;;1.58;;
71207;SDS011;58938;49.868;8.646;2022-09-09T13:13:27;6.30;;;1.40;;
71207;SDS011;58938;49.868;8.646;2022-09-09T13:16:00;6.10;;;1.03;;
71207;SDS011;58938;49.868;8.646;2022-09-09T13:18:28;5.03;;;1.15;;
71207;SDS011;58938;49.868;8.646;2022-09-09T13:20:56;4.05;;;1.15;;
71207;SDS011;58938;49.868;8.646;2022-09-09T13:23:33;5.93;;;1.25;;
71207;SDS011;58938;49.868;8.646;2022-09-09T13:26:02;4.93;;;1.40;;
71207;SDS011;58938;49.868;8.646;2022-09-09T13:28:30;4.00;;;1.37;;
71207;SDS011;58938;49.868;8.646;2022-09-09T13:30:57;4.10;;;1.15;;
71207;SDS011;58938;49.868;8.646;2022-09-09T13:33:29;3.50;;;1.25;;
71207;SDS011;58938;49.868;8.646;2022-09-09T13:36:00;5.00;;;1.42;;
71207;SDS011;58938;49.868;8.646;2022-09-09T13:38:29;4.65;;;1.58;;
71207;SDS011;58938;49.868;8.646;2022-09-09T13:43:32;9.07;;;1.52;;
71207;SDS011;58938;49.868;8.646;2022-09-09T13:49:01;2.97;;;1.10;;
71207;SDS011;58938;49.868;8.646;2022-09-09T13:51:44;4.40;;;1.40;;
71207;SDS011;58938;49.868;8.646;2022-09-09T13:54:16;4.10;;;1.10;;
71207;SDS011;58938;49.868;8.646;2022-09-09T13:56:44;4.72;;;1.38;;
71207;SDS011;58938;49.868;8.646;2022-09-09T13:59:17;3.63;;;1.40;;
71207;SDS011;58938;49.868;8.646;2022-09-09T14:01:49;4.68;;;1.42;;
71207;SDS011;58938;49.868;8.646;2022-09-09T14:04:17;5.93;;;1.27;;
71207;SDS011;58938;49.868;8.646;2022-09-09T14:06:46;4.33;;;1.00;;
71207;SDS011;58938;49.868;8.646;2022-09-09T14:09:13;4.13;;;1.30;;
71207;SDS011;58938;49.868;8.646;2022-09-09T14:11:40;3.53;;;1.30;;
71207;SDS011;58938;49.868;8.646;2022-09-09T14:14:06;6.15;;;1.40;;
71207;SDS011;58938;49.868;8.646;2022-09-09T14:16:32;4.37;;;1.13;;
71207;SDS011;58938;49.868;8.646;2022-09-09T14:18:58;6.88;;;1.70;;
71207;SDS011;58938;49.868;8.646;2022-09-09T14:21:27;4.88;;;1.20;;
71207;SDS011;58938;49.868;8.646;2022-09-09T14:23:52;6.45;;;1.30;;
71207;SDS011;58938;49.868;8.646;2022-09-09T14:26:19;5.93;;;1.20;;
71207;SDS011;58938;49.868;8.646;2022-09-09T14:28:48;7.53;;;1.67;;
71207;SDS011;58938;49.868;8.646;2022-09-09T14:31:15;6.97;;;2.80;;
71207;SDS011;58938;49.868;8.646;2022-09-09T14:33:42;5.40;;;1.83;;
71207;SDS011;58938;49.868;8.646;2022-09-09T14:36:08;5.40;;;1.73;;
71207;SDS011;58938;49.868;8.646;2022-09-09T14:38:35;6.37;;;1.83;;
71207;SDS011;58938;49.868;8.646;2022-09-09T14:41:14;4.95;;;1.80;;
71207;SDS011;58938;49.868;8.646;2022-09-09T14:43:42;4.60;;;1.65;;
71207;SDS011;58938;49.868;8.646;2022-09-09T14:46:09;5.45;;;1.73;;
71207;SDS011;58938;49.868;8.646;2022-09-09T14:48:36;4.20;;;1.45;;
71207;SDS011;58938;49.868;8.646;2022-09-09T14:51:04;8.73;;;1.57;;
71207;SDS011;58938;49.868;8.646;2022-09-09T14:53:31;5.18;;;1.48;;
71207;SDS011;58938;49.868;8.646;2022-09-09T14:56:03;4.57;;;2.07;;
71207;SDS011;58938;49.868;8.646;2022-09-09T14:58:30;4.75;;;1.10;;
71207;SDS011;58938;49.868;8.646;2022-09-09T15:01:01;6.88;;;2.03;;
71207;SDS011;58938;49.868;8.646;2022-09-09T15:03:28;3.97;;;1.40;;
71207;SDS011;58938;49.868;8.646;2022-09-09T15:05:53;6.07;;;1.47;;
71207;SDS011;58938;49.868;8.646;2022-09-09T15:08:19;8.73;;;1.50;;
71207;SDS011;58938;49.868;8.646;2022-09-09T15:10:44;3.60;;;1.50;;
71207;SDS011;58938;49.868;8.646;2022-09-09T15:13:12;5.85;;;1.55;;
71207;SDS011;58938;49.868;8.646;2022-09-09T15:15:41;4.95;;;1.40;;
71207;SDS011;58938;49.868;8.646;2022-09-09T15:18:11;6.63;;;1.90;;
71207;SDS011;58938;49.868;8.646;2022-09-09T15:20:37;3.75;;;1.27;;
71207;SDS011;58938;49.868;8.646;2022-09-09T15:23:03;4.20;;;1.57;;
71207;SDS011;58938;49.868;8.646;2022-09-09T15:25:29;5.28;;;1.50;;
71207;SDS011;58938;49.868;8.646;2022-09-09T15:27:55;6.40;;;1.90;;
71207;SDS011;58938;49.868;8.646;2022-09-09T15:30:24;5.35;;;1.35;;
71207;SDS011;58938;49.868;8.646;2022-09-09T15:32:52;4.03;;;1.45;;
71207;SDS011;58938;49.868;8.646;2022-09-09T15:35:18;6.57;;;1.70;;
71207;SDS011;58938;49.868;8.646;2022-09-09T15:37:44;6.97;;;2.15;;
71207;SDS011;58938;49.868;8.646;2022-09-09T15:40:10;4.63;;;1.30;;
71207;SDS011;58938;49.868;8.646;2022-09-09T15:42:35;5.83;;;1.60;;
71207;SDS011;58938;49.868;8.646;2022-09-09T15:45:01;5.53;;;1.70;;
71207;SDS011;58938;49.868;8.646;2022-09-09T15:47:26;5.47;;;1.50;;
71207;SDS011;58938;49.868;8.646;2022-09-09T15:49:52;5.97;;;1.40;;
71207;SDS011;58938;49.868;8.646;2022-09-09T15:52:18;7.57;;;2.10;;
71207;SDS011;58938;49.868;8.646;2022-09-09T15:54:43;5.70;;;1.33;;
71207;SDS011;58938;49.868;8.646;2022-09-09T15:57:11;8.45;;;2.13;;
71207;SDS011;58938;49.868;8.646;2022-09-09T15:59:37;6.03;;;1.60;;
71207;SDS011;58938;49.868;8.646;2022-09-09T16:02:03;6.00;;;1.50;;
71207;SDS011;58938;49.868;8.646;2022-09-09T16:04:29;7.05;;;1.95;;
71207;SDS011;58938;49.868;8.646;2022-09-09T16:06:57;4.57;;;1.70;;
71207;SDS011;58938;49.868;8.646;2022-09-09T16:09:25;7.32;;;1.70;;
71207;SDS011;58938;49.868;8.646;2022-09-09T16:11:52;6.22;;;1.70;;
71207;SDS011;58938;49.868;8.646;2022-09-09T16:14:23;6.55;;;1.60;;
71207;SDS011;58938;49.868;8.646;2022-09-09T16:16:50;4.18;;;1.48;;
71207;SDS011;58938;49.868;8.646;2022-09-09T16:19:15;5.27;;;1.70;;
71207;SDS011;58938;49.868;8.646;2022-09-09T16:21:42;3.57;;;1.37;;
71207;SDS011;58938;49.868;8.646;2022-09-09T16:24:10;5.40;;;1.58;;
71207;SDS011;58938;49.868;8.646;2022-09-09T16:26:39;3.92;;;1.20;;
71207;SDS011;58938;49.868;8.646;2022-09-09T16:29:09;4.18;;;1.30;;
71207;SDS011;58938;49.868;8.646;2022-09-09T16:31:35;4.13;;;1.23;;
71207;SDS011;58938;49.868;8.646;2022-09-09T16:34:13;5.30;;;1.40;;
71207;SDS011;58938;49.868;8.646;2022-09-09T16:36:40;5.15;;;1.77;;
71207;SDS011;58938;49.868;8.646;2022-09-09T16:39:12;4.70;;;1.42;;
71207;SDS011;58938;49.868;8.646;2022-09-09T16:41:44;4.03;;;1.23;;
71207;SDS011;58938;49.868;8.646;2022-09-09T16:44:12;4.13;;;1.75;;
71207;SDS011;58938;49.868;8.646;2022-09-09T16:46:39;6.23;;;1.50;;
71207;SDS011;58938;49.868;8.646;2022-09-09T16:49:08;4.57;;;1.30;;
71207;SDS011;58938;49.868;8.646;2022-09-09T16:51:39;4.93;;;1.40;;
71207;SDS011;58938;49.868;8.646;2022-09-09T16:54:07;6.32;;;1.50;;
71207;SDS011;58938;49.868;8.646;2022-09-09T16:56:35;4.07;;;1.77;;
71207;SDS011;58938;49.868;8.646;2022-09-09T16:59:03;3.80;;;1.30;;
71207;SDS011;58938;49.868;8.646;2022-09-09T17:01:32;6.15;;;1.50;;
71207;SDS011;58938;49.868;8.646;2022-09-09T17:04:02;5.85;;;1.30;;
71207;SDS011;58938;49.868;8.646;2022-09-09T17:06:30;4.43;;;1.92;;